sensor_id;sensor_type;location;lat;lon;timestamp;pressure;altitude;pressure_sealevel;temperature;humidity
68594;BME280;55563;52.416;13.548;2023-03-25T00:01:27;99931.94;;;7.47;100.00
68594;BME280;55563;52.416;13.548;2023-03-25T00:03:31;99926.75;;;7.57;100.00
68594;BME280;55563;52.416;13.548;2023-03-25T00:05:33;99917.88;;;7.63;100.00
68594;BME280;55563;52.416;13.548;2023-03-25T00:07:33;99913.69;;;7.62;100.00
68594;BME280;55563;52.416;13.548;2023-03-25T00:09:36;99922.53;;;7.51;100.00
68594;BME280;55563;52.416;13.548;2023-03-25T00:11:36;99923.31;;;7.46;100.00
68594;BME280;55563;52.416;13.548;2023-03-25T00:13:37;99926.47;;;7.48;100.00
68594;BME280;55563;52.416;13.548;2023-03-25T00:15:42;99923.28;;;7.41;100.00
68594;BME280;55563;52.416;13.548;2023-03-25T00:17:45;99922.47;;;7.35;100.00
68594;BME280;55563;52.416;13.548;2023-03-25T00:19:45;99917.25;;;7.40;100.00
68594;BME280;55563;52.416;13.548;2023-03-25T00:21:49;99908.84;;;7.28;100.00
68594;BME280;55563;52.416;13.548;2023-03-25T00:23:51;99908.53;;;7.25;100.00
68594;BME280;55563;52.416;13.548;2023-03-25T00:25:52;99907.81;;;7.34;100.00
68594;BME280;55563;52.416;13.548;2023-03-25T00:27:53;99901.81;;;7.39;100.00
68594;BME280;55563;52.416;13.548;2023-03-25T00:29:53;99900.81;;;7.45;100.00
68594;BME280;55563;52.416;13.548;2023-03-25T00:31:54;99907.91;;;7.55;100.00
68594;BME280;55563;52.416;13.548;2023-03-25T00:33:55;99899.03;;;7.61;100.00
68594;BME280;55563;52.416;13.548;2023-03-25T00:35:58;99902.44;;;7.56;100.00
68594;BME280;55563;52.416;13.548;2023-03-25T00:37:59;99901.66;;;7.61;100.00
68594;BME280;55563;52.416;13.548;2023-03-25T00:40:02;99901.69;;;7.66;100.00
68594;BME280;55563;52.416;13.548;2023-03-25T00:42:03;99907.72;;;7.76;100.00
68594;BME280;55563;52.416;13.548;2023-03-25T00:44:04;99899.88;;;7.71;100.00
68594;BME280;55563;52.416;13.548;2023-03-25T00:46:05;99904.81;;;7.68;100.00
68594;BME280;55563;52.416;13.548;2023-03-25T00:48:06;99903.78;;;7.69;100.00
68594;BME280;55563;52.416;13.548;2023-03-25T00:50:07;99907.97;;;7.75;100.00
68594;BME280;55563;52.416;13.548;2023-03-25T00:52:07;99907.19;;;7.69;100.00
68594;BME280;55563;52.416;13.548;2023-03-25T00:54:08;99912.44;;;7.74;100.00
68594;BME280;55563;52.416;13.548;2023-03-25T00:56:10;99903.28;;;7.77;100.00
68594;BME280;55563;52.416;13.548;2023-03-25T00:58:11;99914.53;;;7.82;100.00
68594;BME280;55563;52.416;13.548;2023-03-25T01:00:14;99910.63;;;7.85;100.00
68594;BME280;55563;52.416;13.548;2023-03-25T01:02:16;99913.25;;;7.85;100.00
68594;BME280;55563;52.416;13.548;2023-03-25T01:04:18;99920.31;;;7.84;100.00
68594;BME280;55563;52.416;13.548;2023-03-25T01:06:18;99915.59;;;7.86;100.00
68594;BME280;55563;52.416;13.548;2023-03-25T01:08:21;99906.19;;;7.85;100.00
68594;BME280;55563;52.416;13.548;2023-03-25T01:10:28;99907.72;;;7.76;100.00
68594;BME280;55563;52.416;13.548;2023-03-25T01:12:29;99902.50;;;7.71;100.00
68594;BME280;55563;52.416;13.548;2023-03-25T01:14:30;99910.03;;;7.68;100.00
68594;BME280;55563;52.416;13.548;2023-03-25T01:16:31;99914.00;;;7.75;100.00
68594;BME280;55563;52.416;13.548;2023-03-25T01:18:32;99911.88;;;7.72;100.00
68594;BME280;55563;52.416;13.548;2023-03-25T01:20:38;99913.44;;;7.68;100.00
68594;BME280;55563;52.416;13.548;2023-03-25T01:22:39;99907.41;;;7.68;100.00
68594;BME280;55563;52.416;13.548;2023-03-25T01:24:39;99902.47;;;7.66;100.00
68594;BME280;55563;52.416;13.548;2023-03-25T01:26:42;99905.59;;;7.68;100.00
68594;BME280;55563;52.416;13.548;2023-03-25T01:28:44;99894.88;;;7.65;100.00
68594;BME280;55563;52.416;13.548;2023-03-25T01:30:44;99891.72;;;7.58;100.00
68594;BME280;55563;52.416;13.548;2023-03-25T01:32:45;99887.53;;;7.62;100.00
68594;BME280;55563;52.416;13.548;2023-03-25T01:34:46;99886.69;;;7.46;100.00
68594;BME280;55563;52.416;13.548;2023-03-25T01:36:47;99878.34;;;7.49;100.00
68594;BME280;55563;52.416;13.548;2023-03-25T01:38:49;99880.16;;;7.38;100.00
68594;BME280;55563;52.416;13.548;2023-03-25T01:40:51;99876.75;;;7.38;100.00
68594;BME280;55563;52.416;13.548;2023-03-25T01:42:52;99880.41;;;7.42;100.00
68594;BME280;55563;52.416;13.548;2023-03-25T01:47:06;99870.44;;;7.34;100.00
68594;BME280;55563;52.416;13.548;2023-03-25T01:49:08;99877.22;;;7.30;100.00
68594;BME280;55563;52.416;13.548;2023-03-25T01:51:16;99873.28;;;7.27;100.00
68594;BME280;55563;52.416;13.548;2023-03-25T01:53:17;99874.09;;;7.33;100.00
68594;BME280;55563;52.416;13.548;2023-03-25T01:55:18;99874.59;;;7.30;100.00
68594;BME280;55563;52.416;13.548;2023-03-25T01:57:21;99875.09;;;7.22;100.00
68594;BME280;55563;52.416;13.548;2023-03-25T01:59:25;99877.22;;;7.35;100.00
68594;BME280;55563;52.416;13.548;2023-03-25T02:01:27;99884.50;;;7.23;100.00
68594;BME280;55563;52.416;13.548;2023-03-25T02:03:29;99871.75;;;7.31;100.00
68594;BME280;55563;52.416;13.548;2023-03-25T02:05:40;99870.94;;;7.31;100.00
68594;BME280;55563;52.416;13.548;2023-03-25T02:07:44;99873.31;;;7.32;100.00
68594;BME280;55563;52.416;13.548;2023-03-25T02:09:47;99865.19;;;7.34;100.00
68594;BME280;55563;52.416;13.548;2023-03-25T02:11:49;99869.44;;;7.45;100.00
68594;BME280;55563;52.416;13.548;2023-03-25T02:13:59;99866.59;;;7.52;100.00
68594;BME280;55563;52.416;13.548;2023-03-25T02:16:25;99865.53;;;7.48;100.00
68594;BME280;55563;52.416;13.548;2023-03-25T02:22:12;99857.97;;;7.51;100.00
68594;BME280;55563;52.416;13.548;2023-03-25T02:38:21;99827.66;;;7.65;100.00
68594;BME280;55563;52.416;13.548;2023-03-25T02:40:35;99829.75;;;7.63;100.00
68594;BME280;55563;52.416;13.548;2023-03-25T02:42:45;99824.25;;;7.65;100.00
68594;BME280;55563;52.416;13.548;2023-03-25T02:44:57;99827.44;;;7.72;100.00
68594;BME280;55563;52.416;13.548;2023-03-25T02:47:03;99827.16;;;7.73;100.00
68594;BME280;55563;52.416;13.548;2023-03-25T02:49:07;99823.50;;;7.79;100.00
68594;BME280;55563;52.416;13.548;2023-03-25T02:51:17;99820.09;;;7.79;100.00
68594;BME280;55563;52.416;13.548;2023-03-25T02:53:26;99810.66;;;7.78;100.00
68594;BME280;55563;52.416;13.548;2023-03-25T02:55:28;99808.06;;;7.73;100.00
68594;BME280;55563;52.416;13.548;2023-03-25T02:57:33;99805.72;;;7.76;100.00
68594;BME280;55563;52.416;13.548;2023-03-25T02:59:35;99805.44;;;7.83;100.00
68594;BME280;55563;52.416;13.548;2023-03-25T03:01:39;99804.94;;;7.81;100.00
68594;BME280;55563;52.416;13.548;2023-03-25T03:03:40;99804.94;;;7.76;100.00
68594;BME280;55563;52.416;13.548;2023-03-25T03:05:44;99807.56;;;7.76;100.00
68594;BME280;55563;52.416;13.548;2023-03-25T03:07:51;99807.56;;;7.81;100.00
68594;BME280;55563;52.416;13.548;2023-03-25T03:10:17;99800.50;;;7.81;100.00
68594;BME280;55563;52.416;13.548;2023-03-25T03:12:32;99796.31;;;7.85;100.00
68594;BME280;55563;52.416;13.548;2023-03-25T03:17:18;99801.00;;;7.88;100.00
68594;BME280;55563;52.416;13.548;2023-03-25T03:19:41;99799.97;;;7.89;100.00
68594;BME280;55563;52.416;13.548;2023-03-25T03:24:30;99801.03;;;7.94;100.00
68594;BME280;55563;52.416;13.548;2023-03-25T03:26:45;99804.94;;;7.96;100.00
68594;BME280;55563;52.416;13.548;2023-03-25T03:31:35;99806.25;;;7.99;100.00
68594;BME280;55563;52.416;13.548;2023-03-25T03:33:48;99807.31;;;8.03;100.00
68594;BME280;55563;52.416;13.548;2023-03-25T03:35:57;99807.31;;;8.08;100.00
68594;BME280;55563;52.416;13.548;2023-03-25T03:38:06;99814.38;;;8.12;100.00
68594;BME280;55563;52.416;13.548;2023-03-25T03:40:15;99817.25;;;8.16;100.00
68594;BME280;55563;52.416;13.548;2023-03-25T03:42:26;99812.00;;;8.21;100.00
68594;BME280;55563;52.416;13.548;2023-03-25T03:44:33;99819.06;;;8.25;100.00
68594;BME280;55563;52.416;13.548;2023-03-25T03:46:42;99819.84;;;8.26;100.00
68594;BME280;55563;52.416;13.548;2023-03-25T03:48:51;99813.06;;;8.30;100.00
68594;BME280;55563;52.416;13.548;2023-03-25T03:50:59;99817.28;;;8.31;100.00
68594;BME280;55563;52.416;13.548;2023-03-25T03:53:15;99817.00;;;8.32;100.00
68594;BME280;55563;52.416;13.548;2023-03-25T03:55:25;99817.56;;;8.29;100.00
68594;BME280;55563;52.416;13.548;2023-03-25T03:57:37;99818.56;;;8.28;100.00
68594;BME280;55563;52.416;13.548;2023-03-25T03:59:50;99812.78;;;8.26;100.00
68594;BME280;55563;52.416;13.548;2023-03-25T04:01:58;99814.13;;;8.24;100.00
68594;BME280;55563;52.416;13.548;2023-03-25T04:04:02;99831.38;;;8.25;100.00
68594;BME280;55563;52.416;13.548;2023-03-25T04:06:11;99818.56;;;8.18;100.00
68594;BME280;55563;52.416;13.548;2023-03-25T04:08:28;99819.59;;;8.17;100.00
68594;BME280;55563;52.416;13.548;2023-03-25T04:10:54;99818.56;;;8.18;100.00
68594;BME280;55563;52.416;13.548;2023-03-25T04:12:59;99824.06;;;8.17;100.00
68594;BME280;55563;52.416;13.548;2023-03-25T04:15:05;99828.25;;;8.18;100.00
68594;BME280;55563;52.416;13.548;2023-03-25T04:17:06;99825.09;;;8.16;100.00
68594;BME280;55563;52.416;13.548;2023-03-25T04:19:07;99823.00;;;8.18;100.00
68594;BME280;55563;52.416;13.548;2023-03-25T04:21:08;99828.00;;;8.19;100.00
68594;BME280;55563;52.416;13.548;2023-03-25T04:23:10;99825.63;;;8.18;100.00
68594;BME280;55563;52.416;13.548;2023-03-25T04:25:15;99832.94;;;8.21;100.00
68594;BME280;55563;52.416;13.548;2023-03-25T04:27:18;99835.06;;;8.19;100.00
68594;BME280;55563;52.416;13.548;2023-03-25T04:29:19;99831.91;;;8.22;100.00
68594;BME280;55563;52.416;13.548;2023-03-25T04:31:20;99826.41;;;8.23;100.00
68594;BME280;55563;52.416;13.548;2023-03-25T04:33:22;99825.09;;;8.26;100.00
68594;BME280;55563;52.416;13.548;2023-03-25T04:35:22;99828.50;;;8.21;100.00
68594;BME280;55563;52.416;13.548;2023-03-25T04:37:26;99826.91;;;8.20;100.00
68594;BME280;55563;52.416;13.548;2023-03-25T04:39:27;99823.00;;;8.23;100.00
68594;BME280;55563;52.416;13.548;2023-03-25T04:41:29;99821.44;;;8.27;100.00
68594;BME280;55563;52.416;13.548;2023-03-25T04:43:31;99815.41;;;8.26;100.00
68594;BME280;55563;52.416;13.548;2023-03-25T04:45:32;99822.50;;;8.31;100.00
68594;BME280;55563;52.416;13.548;2023-03-25T04:47:35;99828.25;;;8.28;100.00
68594;BME280;55563;52.416;13.548;2023-03-25T04:49:36;99821.97;;;8.29;100.00
68594;BME280;55563;52.416;13.548;2023-03-25T04:51:37;99821.44;;;8.27;100.00
68594;BME280;55563;52.416;13.548;2023-03-25T04:53:38;99825.63;;;8.28;100.00
68594;BME280;55563;52.416;13.548;2023-03-25T04:55:39;99821.97;;;8.29;100.00
68594;BME280;55563;52.416;13.548;2023-03-25T04:57:49;99831.13;;;8.26;100.00
68594;BME280;55563;52.416;13.548;2023-03-25T04:59:50;99815.66;;;8.25;100.00
68594;BME280;55563;52.416;13.548;2023-03-25T05:01:50;99813.84;;;8.25;100.00
68594;BME280;55563;52.416;13.548;2023-03-25T05:03:52;99819.59;;;8.17;100.00
68594;BME280;55563;52.416;13.548;2023-03-25T05:05:54;99819.59;;;8.17;100.00
68594;BME280;55563;52.416;13.548;2023-03-25T05:07:55;99821.44;;;8.17;100.00
68594;BME280;55563;52.416;13.548;2023-03-25T05:09:58;99828.25;;;8.18;100.00
68594;BME280;55563;52.416;13.548;2023-03-25T05:11:58;99819.06;;;8.20;100.00
68594;BME280;55563;52.416;13.548;2023-03-25T05:13:59;99817.25;;;8.26;100.00
68594;BME280;55563;52.416;13.548;2023-03-25T05:16:00;99821.72;;;8.30;100.00
68594;BME280;55563;52.416;13.548;2023-03-25T05:18:01;99801.56;;;8.31;100.00
68594;BME280;55563;52.416;13.548;2023-03-25T05:20:03;99810.75;;;8.34;100.00
68594;BME280;55563;52.416;13.548;2023-03-25T05:22:07;99812.03;;;8.36;100.00
68594;BME280;55563;52.416;13.548;2023-03-25T05:24:10;99808.91;;;8.34;100.00
68594;BME280;55563;52.416;13.548;2023-03-25T05:26:12;99810.72;;;8.28;100.00
68594;BME280;55563;52.416;13.548;2023-03-25T05:28:13;99808.59;;;8.25;100.00
68594;BME280;55563;52.416;13.548;2023-03-25T05:30:14;99812.00;;;8.26;100.00
68594;BME280;55563;52.416;13.548;2023-03-25T05:32:15;99808.13;;;8.34;100.00
68594;BME280;55563;52.416;13.548;2023-03-25T05:34:17;99802.06;;;8.48;100.00
68594;BME280;55563;52.416;13.548;2023-03-25T05:36:20;99795.25;;;8.47;100.00
68594;BME280;55563;52.416;13.548;2023-03-25T05:38:20;99802.34;;;8.47;100.00
68594;BME280;55563;52.416;13.548;2023-03-25T05:40:22;99800.50;;;8.42;100.00
68594;BME280;55563;52.416;13.548;2023-03-25T05:42:23;99798.69;;;8.43;100.00
68594;BME280;55563;52.416;13.548;2023-03-25T05:44:24;99804.16;;;8.41;100.00
68594;BME280;55563;52.416;13.548;2023-03-25T05:46:27;99814.38;;;8.53;100.00
68594;BME280;55563;52.416;13.548;2023-03-25T05:48:29;99796.78;;;8.63;100.00
68594;BME280;55563;52.416;13.548;2023-03-25T05:50:31;99804.09;;;8.87;100.00
68594;BME280;55563;52.416;13.548;2023-03-25T05:52:32;99806.13;;;9.00;100.00
68594;BME280;55563;52.416;13.548;2023-03-25T05:54:33;99806.13;;;9.05;100.00
68594;BME280;55563;52.416;13.548;2023-03-25T05:56:38;99810.53;;;9.14;100.00
68594;BME280;55563;52.416;13.548;2023-03-25T05:58:40;99814.19;;;9.13;100.00
68594;BME280;55563;52.416;13.548;2023-03-25T06:00:41;99817.88;;;9.12;100.00
68594;BME280;55563;52.416;13.548;2023-03-25T06:02:43;99810.56;;;9.04;100.00
68594;BME280;55563;52.416;13.548;2023-03-25T06:04:47;99831.81;;;8.93;100.00
68594;BME280;55563;52.416;13.548;2023-03-25T06:06:50;99823.25;;;8.77;100.00
68594;BME280;55563;52.416;13.548;2023-03-25T06:08:50;99827.69;;;8.77;100.00
68594;BME280;55563;52.416;13.548;2023-03-25T06:10:54;99837.38;;;8.76;100.00
68594;BME280;55563;52.416;13.548;2023-03-25T06:12:57;99832.66;;;8.78;100.00
68594;BME280;55563;52.416;13.548;2023-03-25T06:14:58;99831.38;;;8.70;100.00
68594;BME280;55563;52.416;13.548;2023-03-25T06:16:59;99830.84;;;8.68;100.00
68594;BME280;55563;52.416;13.548;2023-03-25T06:19:00;99838.69;;;8.73;100.00
68594;BME280;55563;52.416;13.548;2023-03-25T06:21:00;99837.13;;;8.78;100.00
68594;BME280;55563;52.416;13.548;2023-03-25T06:23:02;99844.72;;;8.74;100.00
68594;BME280;55563;52.416;13.548;2023-03-25T06:25:03;99843.91;;;8.79;100.00
68594;BME280;55563;52.416;13.548;2023-03-25T06:27:07;99840.25;;;8.80;100.00
68594;BME280;55563;52.416;13.548;2023-03-25T06:29:08;99849.16;;;8.79;100.00
68594;BME280;55563;52.416;13.548;2023-03-25T06:31:12;99842.63;;;8.81;100.00
68594;BME280;55563;52.416;13.548;2023-03-25T06:33:16;99836.59;;;8.81;100.00
68594;BME280;55563;52.416;13.548;2023-03-25T06:35:19;99847.06;;;8.81;100.00
68594;BME280;55563;52.416;13.548;2023-03-25T06:37:21;99845.22;;;8.81;100.00
68594;BME280;55563;52.416;13.548;2023-03-25T06:39:27;99842.59;;;8.86;100.00
68594;BME280;55563;52.416;13.548;2023-03-25T06:41:31;99844.13;;;8.92;100.00
68594;BME280;55563;52.416;13.548;2023-03-25T06:43:46;99850.44;;;8.91;100.00
68594;BME280;55563;52.416;13.548;2023-03-25T06:46:07;99853.06;;;9.01;100.00
68594;BME280;55563;52.416;13.548;2023-03-25T06:48:28;99844.13;;;9.02;100.00
68594;BME280;55563;52.416;13.548;2023-03-25T06:50:29;99848.28;;;9.08;100.00
68594;BME280;55563;52.416;13.548;2023-03-25T06:52:29;99846.69;;;9.17;100.00
68594;BME280;55563;52.416;13.548;2023-03-25T06:54:30;99846.41;;;9.24;100.00
68594;BME280;55563;52.416;13.548;2023-03-25T06:56:31;99842.97;;;9.29;100.00
68594;BME280;55563;52.416;13.548;2023-03-25T06:58:32;99840.41;;;9.18;100.00
68594;BME280;55563;52.416;13.548;2023-03-25T07:00:34;99836.44;;;9.21;100.00
68594;BME280;55563;52.416;13.548;2023-03-25T07:02:35;99841.97;;;9.19;100.00
68594;BME280;55563;52.416;13.548;2023-03-25T07:04:35;99833.78;;;9.26;100.00
68594;BME280;55563;52.416;13.548;2023-03-25T07:06:36;99836.13;;;9.33;100.00
68594;BME280;55563;52.416;13.548;2023-03-25T07:08:36;99840.34;;;9.34;100.00
68594;BME280;55563;52.416;13.548;2023-03-25T07:10:37;99839.47;;;9.53;100.00
68594;BME280;55563;52.416;13.548;2023-03-25T07:12:38;99840.91;;;9.75;100.00
68594;BME280;55563;52.416;13.548;2023-03-25T07:14:39;99837.84;;;10.01;100.00
68594;BME280;55563;52.416;13.548;2023-03-25T07:16:40;99845.47;;;9.98;100.00
68594;BME280;55563;52.416;13.548;2023-03-25T07:18:41;99847.00;;;10.04;100.00
68594;BME280;55563;52.416;13.548;2023-03-25T07:20:41;99854.00;;;9.80;100.00
68594;BME280;55563;52.416;13.548;2023-03-25T07:22:42;99852.59;;;9.97;100.00
68594;BME280;55563;52.416;13.548;2023-03-25T07:24:43;99853.97;;;10.24;100.00
68594;BME280;55563;52.416;13.548;2023-03-25T07:26:44;99849.47;;;10.29;100.00
68594;BME280;55563;52.416;13.548;2023-03-25T07:30:19;99852.56;;;10.36;100.00
68594;BME280;55563;52.416;13.548;2023-03-25T07:32:20;99853.09;;;9.94;100.00
68594;BME280;55563;52.416;13.548;2023-03-25T07:34:20;99853.91;;;9.95;100.00
68594;BME280;55563;52.416;13.548;2023-03-25T07:36:21;99857.41;;;10.24;100.00
68594;BME280;55563;52.416;13.548;2023-03-25T07:38:24;99865.53;;;10.57;100.00
68594;BME280;55563;52.416;13.548;2023-03-25T07:40:25;99853.09;;;10.91;100.00
68594;BME280;55563;52.416;13.548;2023-03-25T07:42:26;99860.19;;;10.90;100.00
68594;BME280;55563;52.416;13.548;2023-03-25T07:44:46;99866.25;;;10.62;100.00
68594;BME280;55563;52.416;13.548;2023-03-25T07:46:48;99862.44;;;10.49;100.00
68594;BME280;55563;52.416;13.548;2023-03-25T07:48:48;99858.66;;;10.27;100.00
68594;BME280;55563;52.416;13.548;2023-03-25T07:50:51;99862.63;;;10.58;100.00
68594;BME280;55563;52.416;13.548;2023-03-25T07:52:52;99854.59;;;10.44;100.00
68594;BME280;55563;52.416;13.548;2023-03-25T07:54:53;99863.22;;;10.79;100.00
68594;BME280;55563;52.416;13.548;2023-03-25T07:56:54;99856.25;;;10.93;100.00
68594;BME280;55563;52.416;13.548;2023-03-25T07:58:55;99847.41;;;11.08;100.00
68594;BME280;55563;52.416;13.548;2023-03-25T08:00:56;99863.13;;;11.55;100.00
68594;BME280;55563;52.416;13.548;2023-03-25T08:02:57;99859.78;;;11.50;100.00
68594;BME280;55563;52.416;13.548;2023-03-25T08:04:58;99857.84;;;11.13;100.00
68594;BME280;55563;52.416;13.548;2023-03-25T08:06:59;99853.47;;;11.03;100.00
68594;BME280;55563;52.416;13.548;2023-03-25T08:09:00;99861.56;;;10.88;100.00
68594;BME280;55563;52.416;13.548;2023-03-25T08:11:01;99851.56;;;10.85;100.00
68594;BME280;55563;52.416;13.548;2023-03-25T08:13:02;99855.34;;;10.79;100.00
68594;BME280;55563;52.416;13.548;2023-03-25T08:15:03;99861.59;;;10.83;100.00
68594;BME280;55563;52.416;13.548;2023-03-25T08:17:05;99854.06;;;11.00;100.00
68594;BME280;55563;52.416;13.548;2023-03-25T08:19:05;99864.78;;;10.80;100.00
68594;BME280;55563;52.416;13.548;2023-03-25T08:21:06;99856.47;;;10.97;100.00
68594;BME280;55563;52.416;13.548;2023-03-25T08:23:09;99857.41;;;11.06;100.00
68594;BME280;55563;52.416;13.548;2023-03-25T08:25:10;99853.31;;;11.18;100.00
68594;BME280;55563;52.416;13.548;2023-03-25T08:27:11;99848.25;;;11.27;100.00
68594;BME280;55563;52.416;13.548;2023-03-25T08:29:11;99858.34;;;11.38;100.00
68594;BME280;55563;52.416;13.548;2023-03-25T08:31:12;99850.78;;;11.32;100.00
68594;BME280;55563;52.416;13.548;2023-03-25T08:33:15;99852.72;;;11.26;100.00
68594;BME280;55563;52.416;13.548;2023-03-25T08:35:17;99850.41;;;11.20;100.00
68594;BME280;55563;52.416;13.548;2023-03-25T08:37:19;99842.56;;;11.15;100.00
68594;BME280;55563;52.416;13.548;2023-03-25T08:39:21;99856.72;;;11.19;100.00
68594;BME280;55563;52.416;13.548;2023-03-25T08:41:29;99860.16;;;11.19;100.00
68594;BME280;55563;52.416;13.548;2023-03-25T08:43:30;99855.09;;;11.23;100.00
68594;BME280;55563;52.416;13.548;2023-03-25T08:45:30;99858.47;;;11.28;100.00
68594;BME280;55563;52.416;13.548;2023-03-25T08:47:32;99854.09;;;11.19;100.00
68594;BME280;55563;52.416;13.548;2023-03-25T08:49:33;99852.97;;;11.25;100.00
68594;BME280;55563;52.416;13.548;2023-03-25T08:51:34;99843.84;;;11.41;100.00
68594;BME280;55563;52.416;13.548;2023-03-25T08:53:34;99848.34;;;11.59;100.00
68594;BME280;55563;52.416;13.548;2023-03-25T08:55:35;99853.59;;;11.59;100.00
68594;BME280;55563;52.416;13.548;2023-03-25T08:57:36;99851.13;;;11.68;100.00
68594;BME280;55563;52.416;13.548;2023-03-25T08:59:37;99850.84;;;11.69;100.00
68594;BME280;55563;52.416;13.548;2023-03-25T09:01:38;99858.69;;;11.93;100.00
68594;BME280;55563;52.416;13.548;2023-03-25T09:03:39;99860.28;;;11.70;100.00
68594;BME280;55563;52.416;13.548;2023-03-25T09:05:40;99843.03;;;12.02;100.00
68594;BME280;55563;52.416;13.548;2023-03-25T09:07:41;99847.44;;;11.88;100.00
68594;BME280;55563;52.416;13.548;2023-03-25T09:09:42;99845.56;;;11.69;100.00
68594;BME280;55563;52.416;13.548;2023-03-25T09:11:43;99851.31;;;11.71;100.00
68594;BME280;55563;52.416;13.548;2023-03-25T09:13:44;99842.56;;;11.57;100.00
68594;BME280;55563;52.416;13.548;2023-03-25T09:15:44;99843.63;;;11.56;100.00
68594;BME280;55563;52.416;13.548;2023-03-25T09:17:46;99844.06;;;11.45;100.00
68594;BME280;55563;52.416;13.548;2023-03-25T09:19:46;99842.81;;;11.37;100.00
68594;BME280;55563;52.416;13.548;2023-03-25T09:21:47;99846.25;;;11.37;100.00
68594;BME280;55563;52.416;13.548;2023-03-25T09:23:48;99839.72;;;11.35;100.00
68594;BME280;55563;52.416;13.548;2023-03-25T09:25:48;99847.22;;;11.42;100.00
68594;BME280;55563;52.416;13.548;2023-03-25T09:27:49;99846.69;;;11.45;100.00
68594;BME280;55563;52.416;13.548;2023-03-25T09:29:50;99849.56;;;11.24;100.00
68594;BME280;55563;52.416;13.548;2023-03-25T09:31:50;99849.84;;;11.23;100.00
68594;BME280;55563;52.416;13.548;2023-03-25T09:33:52;99843.41;;;11.34;100.00
68594;BME280;55563;52.416;13.548;2023-03-25T09:35:52;99838.41;;;11.32;100.00
68594;BME280;55563;52.416;13.548;2023-03-25T09:37:54;99848.41;;;11.54;100.00
68594;BME280;55563;52.416;13.548;2023-03-25T09:39:54;99839.66;;;11.59;100.00
68594;BME280;55563;52.416;13.548;2023-03-25T09:44:56;99854.97;;;11.33;100.00
68594;BME280;55563;52.416;13.548;2023-03-25T09:47:01;99849.44;;;11.34;100.00
68594;BME280;55563;52.416;13.548;2023-03-25T09:49:02;99843.53;;;11.24;100.00
68594;BME280;55563;52.416;13.548;2023-03-25T09:51:08;99847.84;;;11.15;100.00
68594;BME280;55563;52.416;13.548;2023-03-25T09:53:38;99858.09;;;11.16;100.00
68594;BME280;55563;52.416;13.548;2023-03-25T09:55:43;99855.41;;;11.21;100.00
68594;BME280;55563;52.416;13.548;2023-03-25T09:57:47;99856.34;;;11.30;100.00
68594;BME280;55563;52.416;13.548;2023-03-25T09:59:50;99865.44;;;11.38;100.00
68594;BME280;55563;52.416;13.548;2023-03-25T10:02:47;99859.41;;;11.56;100.00
68594;BME280;55563;52.416;13.548;2023-03-25T10:05:15;99862.03;;;11.80;100.00
68594;BME280;55563;52.416;13.548;2023-03-25T10:07:21;99861.81;;;11.76;100.00
68594;BME280;55563;52.416;13.548;2023-03-25T10:12:11;99854.31;;;11.65;100.00
68594;BME280;55563;52.416;13.548;2023-03-25T10:14:31;99851.88;;;11.50;100.00
68594;BME280;55563;52.416;13.548;2023-03-25T10:17:04;99855.00;;;11.70;100.00
68594;BME280;55563;52.416;13.548;2023-03-25T10:19:46;99861.38;;;12.07;100.00
68594;BME280;55563;52.416;13.548;2023-03-25T10:22:03;99843.91;;;12.43;100.00
68594;BME280;55563;52.416;13.548;2023-03-25T10:24:19;99851.22;;;12.65;100.00
68594;BME280;55563;52.416;13.548;2023-03-25T10:26:25;99842.69;;;12.54;100.00
68594;BME280;55563;52.416;13.548;2023-03-25T10:28:33;99835.41;;;12.79;100.00
68594;BME280;55563;52.416;13.548;2023-03-25T10:30:42;99837.44;;;12.82;100.00
68594;BME280;55563;52.416;13.548;2023-03-25T10:32:48;99828.38;;;13.15;100.00
68594;BME280;55563;52.416;13.548;2023-03-25T10:34:50;99835.22;;;13.02;100.00
68594;BME280;55563;52.416;13.548;2023-03-25T10:36:56;99839.00;;;13.10;100.00
68594;BME280;55563;52.416;13.548;2023-03-25T10:39:00;99837.06;;;13.02;100.00
68594;BME280;55563;52.416;13.548;2023-03-25T10:41:14;99835.72;;;13.18;100.00
68594;BME280;55563;52.416;13.548;2023-03-25T10:43:35;99832.78;;;13.20;100.00
68594;BME280;55563;52.416;13.548;2023-03-25T10:45:39;99828.59;;;13.19;100.00
68594;BME280;55563;52.416;13.548;2023-03-25T10:47:43;99835.09;;;13.35;100.00
68594;BME280;55563;52.416;13.548;2023-03-25T10:49:47;99833.34;;;13.03;100.00
68594;BME280;55563;52.416;13.548;2023-03-25T10:51:50;99830.81;;;12.98;100.00
68594;BME280;55563;52.416;13.548;2023-03-25T10:53:54;99831.41;;;13.22;100.00
68594;BME280;55563;52.416;13.548;2023-03-25T10:56:02;99837.03;;;13.43;100.00
68594;BME280;55563;52.416;13.548;2023-03-25T10:58:04;99832.28;;;13.31;100.00
68594;BME280;55563;52.416;13.548;2023-03-25T11:00:08;99824.69;;;13.16;100.00
68594;BME280;55563;52.416;13.548;2023-03-25T11:02:19;99820.38;;;13.20;100.00
68594;BME280;55563;52.416;13.548;2023-03-25T11:04:33;99817.66;;;13.61;100.00
68594;BME280;55563;52.416;13.548;2023-03-25T11:06:38;99830.31;;;13.73;100.00
68594;BME280;55563;52.416;13.548;2023-03-25T11:08:56;99822.56;;;13.54;100.00
68594;BME280;55563;52.416;13.548;2023-03-25T11:10:57;99824.25;;;13.72;100.00
68594;BME280;55563;52.416;13.548;2023-03-25T11:13:00;99821.03;;;13.26;100.00
68594;BME280;55563;52.416;13.548;2023-03-25T11:15:06;99832.16;;;12.95;100.00
68594;BME280;55563;52.416;13.548;2023-03-25T11:17:15;99822.13;;;13.11;100.00
68594;BME280;55563;52.416;13.548;2023-03-25T11:19:23;99816.06;;;13.38;100.00
68594;BME280;55563;52.416;13.548;2023-03-25T11:21:25;99818.50;;;13.70;100.00